Time;durP1;ratioP1;P1;durP2;ratioP2;P2;SDS_P1;SDS_P2;PMS_P1;PMS_P2;Temp;Humidity;BMP_temperature;BMP_pressure;BME280_temperature;BME280_humidity;BME280_pressure;Samples;Min_cycle;Max_cycle;Signal;HPM_P1;HPM_P2
2021/08/24 00:00:12;;;;;;;10.60;6.30;;;14.80;78.10;;;;;;4821719;29;20070;-77
2021/08/24 00:02:43;;;;;;;13.93;6.55;;;14.90;78.10;;;;;;4821688;29;20077;-77
2021/08/24 00:05:13;;;;;;;10.18;6.50;;;15.00;78.10;;;;;;4821775;29;20053;-77
2021/08/24 00:07:41;;;;;;;11.43;6.15;;;15.00;78.00;;;;;;4820900;29;20069;-77
2021/08/24 00:10:09;;;;;;;8.68;5.90;;;15.10;77.80;;;;;;4822903;29;20054;-77
2021/08/24 00:12:37;;;;;;;13.40;6.00;;;15.20;77.80;;;;;;4825693;29;20065;-78
2021/08/24 00:15:10;;;;;;;12.10;6.13;;;15.20;77.70;;;;;;4824877;29;20057;-78
2021/08/24 00:17:38;;;;;;;9.85;5.38;;;15.30;77.70;;;;;;4823145;29;20058;-76
2021/08/24 00:20:09;;;;;;;8.57;5.20;;;15.30;77.60;;;;;;4825079;29;20047;-79
2021/08/24 00:22:38;;;;;;;10.05;4.90;;;15.30;77.50;;;;;;4826110;29;20509;-77
2021/08/24 00:25:11;;;;;;;11.50;5.10;;;15.40;77.50;;;;;;4824774;29;20493;-77
2021/08/24 00:27:40;;;;;;;7.93;5.47;;;15.40;77.40;;;;;;4826146;29;20038;-77
2021/08/24 00:30:09;;;;;;;10.88;4.32;;;15.40;77.40;;;;;;4825036;29;20042;-77
2021/08/24 00:32:37;;;;;;;8.35;4.20;;;15.50;77.40;;;;;;4824598;29;20054;-77
2021/08/24 00:35:05;;;;;;;7.68;3.92;;;15.50;77.40;;;;;;4826150;29;20061;-76
2021/08/24 00:37:36;;;;;;;9.95;4.05;;;15.50;77.40;;;;;;4824482;29;20409;-77
2021/08/24 00:40:07;;;;;;;7.57;3.80;;;15.50;77.30;;;;;;4822825;29;20554;-77
2021/08/24 00:42:36;;;;;;;7.47;4.10;;;15.60;77.30;;;;;;4824655;29;20069;-77
2021/08/24 00:45:10;;;;;;;8.90;4.00;;;15.60;77.20;;;;;;4824644;29;20074;-77
2021/08/24 00:47:42;;;;;;;10.60;3.83;;;15.60;77.30;;;;;;4841043;29;20526;-78
2021/08/24 00:50:26;;;;;;;7.55;3.92;;;15.70;77.30;;;;;;4842828;29;20058;-76
2021/08/24 00:53:00;;;;;;;6.55;3.28;;;15.60;77.40;;;;;;4842413;29;20507;-78
2021/08/24 00:55:28;;;;;;;6.32;3.22;;;15.70;77.40;;;;;;4828087;29;20062;-76
2021/08/24 00:57:59;;;;;;;4.05;2.83;;;15.70;77.30;;;;;;4830308;29;20050;-76
2021/08/24 01:00:30;;;;;;;3.67;2.90;;;15.70;77.30;;;;;;4825576;29;20528;-76
2021/08/24 01:03:10;;;;;;;3.40;2.70;;;15.70;77.30;;;;;;4823962;29;20054;-76
2021/08/24 01:05:41;;;;;;;5.30;3.10;;;15.70;77.40;;;;;;4824784;29;20049;-76
2021/08/24 01:08:28;;;;;;;4.53;2.80;;;15.70;77.40;;;;;;4825376;29;20523;-76
2021/08/24 01:11:07;;;;;;;6.82;2.85;;;15.70;77.40;;;;;;4825782;29;20382;-77
2021/08/24 01:13:41;;;;;;;5.63;2.75;;;15.80;77.30;;;;;;4825816;29;20054;-77
2021/08/24 01:16:42;;;;;;;4.30;2.83;;;15.80;77.40;;;;;;4819122;29;20062;-78
2021/08/24 01:19:39;;;;;;;3.22;2.70;;;15.80;77.50;;;;;;4807792;29;20047;-78
2021/08/24 01:22:21;;;;;;;4.45;2.75;;;15.80;77.40;;;;;;4820753;29;20054;-77
2021/08/24 01:24:56;;;;;;;6.60;2.70;;;15.80;77.50;;;;;;4807140;29;20536;-78
2021/08/24 01:27:30;;;;;;;2.90;2.53;;;15.80;77.50;;;;;;4806184;29;20303;-78
2021/08/24 01:29:58;;;;;;;2.75;2.42;;;15.80;77.60;;;;;;4806895;29;20062;-78
2021/08/24 01:33:06;;;;;;;4.05;2.10;;;15.80;77.60;;;;;;4828945;29;20055;-77
2021/08/24 01:36:01;;;;;;;3.53;2.35;;;15.80;77.80;;;;;;4822665;29;20065;-77
2021/08/24 01:38:38;;;;;;;6.72;2.30;;;15.80;77.80;;;;;;4822705;29;20050;-77
2021/08/24 01:41:20;;;;;;;5.47;2.35;;;15.80;77.70;;;;;;4822786;29;20054;-77
2021/08/24 01:44:05;;;;;;;4.93;2.00;;;15.80;77.80;;;;;;4822710;29;20505;-76
2021/08/24 01:46:46;;;;;;;4.32;1.83;;;15.80;77.90;;;;;;4822564;29;20062;-77
2021/08/24 01:49:20;;;;;;;3.30;2.47;;;15.80;77.90;;;;;;4822063;29;20051;-77
2021/08/24 01:51:56;;;;;;;2.40;2.17;;;15.80;78.00;;;;;;4822385;29;20066;-78
2021/08/24 01:54:38;;;;;;;4.47;2.33;;;15.80;78.00;;;;;;4822643;29;20417;-77
2021/08/24 01:57:13;;;;;;;3.75;2.42;;;15.80;78.10;;;;;;4822369;29;20058;-77
2021/08/24 02:00:06;;;;;;;2.95;2.28;;;15.80;78.10;;;;;;4829078;29;20493;-77
2021/08/24 02:02:50;;;;;;;3.17;2.50;;;15.80;78.30;;;;;;4840583;29;20061;-77
2021/08/24 02:05:18;;;;;;;3.67;2.60;;;15.80;78.20;;;;;;4840815;29;20521;-77
2021/08/24 02:07:54;;;;;;;2.92;2.50;;;15.80;78.10;;;;;;4840507;29;20563;-77
2021/08/24 02:10:24;;;;;;;4.88;2.45;;;15.80;78.20;;;;;;4823618;29;20073;-77
2021/08/24 02:12:55;;;;;;;3.42;2.90;;;15.80;78.20;;;;;;4805226;29;20054;-77
2021/08/24 02:15:32;;;;;;;2.75;2.55;;;15.80;78.40;;;;;;4806189;29;20047;-77
2021/08/24 02:18:03;;;;;;;4.03;2.95;;;15.80;78.50;;;;;;4809406;29;20520;-77
2021/08/24 02:20:42;;;;;;;5.00;2.95;;;15.80;78.50;;;;;;4824527;29;20517;-77
2021/08/24 02:23:17;;;;;;;;;;;15.80;78.60;;;;;;4824864;29;20489;-77
2021/08/24 02:25:47;;;;;;;4.07;3.20;;;15.70;78.60;;;;;;4824437;29;19928;-77
2021/08/24 02:28:22;;;;;;;4.72;3.50;;;15.80;78.50;;;;;;4824480;29;20062;-77
2021/08/24 02:30:58;;;;;;;5.07;3.92;;;15.80;78.60;;;;;;4822835;29;20065;-78
2021/08/24 02:33:38;;;;;;;6.55;4.10;;;15.80;78.80;;;;;;4805945;29;20067;-77
2021/08/24 02:36:08;;;;;;;13.10;5.95;;;15.80;78.90;;;;;;4806097;29;20062;-77
2021/08/24 02:38:38;;;;;;;8.57;5.60;;;15.70;79.00;;;;;;4804991;29;20413;-78
2021/08/24 02:41:23;;;;;;;8.98;6.75;;;15.80;79.10;;;;;;4820073;29;20051;-77
2021/08/24 02:44:13;;;;;;;11.60;7.63;;;15.80;79.40;;;;;;4804671;29;20054;-77
2021/08/24 02:46:46;;;;;;;12.00;7.38;;;15.70;79.60;;;;;;4804356;29;20062;-77
2021/08/24 02:49:18;;;;;;;12.48;7.97;;;15.70;79.60;;;;;;4806058;29;20051;-77
2021/08/24 02:51:49;;;;;;;11.88;7.85;;;15.70;79.70;;;;;;4804917;29;20047;-77
2021/08/24 02:54:27;;;;;;;15.35;7.93;;;15.60;79.90;;;;;;4805648;29;20059;-77
2021/08/24 02:57:00;;;;;;;9.30;7.65;;;15.70;80.20;;;;;;4805245;29;20636;-77
2021/08/24 02:59:29;;;;;;;11.07;7.47;;;15.70;80.30;;;;;;4805437;29;20417;-76
2021/08/24 03:01:57;;;;;;;10.40;6.68;;;15.60;80.50;;;;;;4789154;29;20063;-76
2021/08/24 03:04:25;;;;;;;9.98;6.20;;;15.60;80.60;;;;;;4805425;29;20414;-76
2021/08/24 03:06:57;;;;;;;8.90;5.28;;;15.60;80.80;;;;;;4819303;29;20077;-77
2021/08/24 03:09:31;;;;;;;6.20;4.95;;;15.60;80.80;;;;;;4804205;29;20050;-77
2021/08/24 03:12:20;;;;;;;4.88;3.90;;;15.60;80.70;;;;;;4804171;29;20058;-77
2021/08/24 03:15:09;;;;;;;5.10;4.60;;;15.60;80.70;;;;;;4805650;29;20054;-78
2021/08/24 03:17:50;;;;;;;5.00;4.45;;;15.60;80.60;;;;;;4822169;29;20046;-77
2021/08/24 03:20:23;;;;;;;6.45;4.07;;;15.50;80.50;;;;;;4823940;29;20058;-77
2021/08/24 03:22:53;;;;;;;5.18;3.15;;;15.60;80.50;;;;;;4823668;29;20050;-77
2021/08/24 03:25:22;;;;;;;5.85;3.20;;;15.50;80.40;;;;;;4823535;29;20054;-77
2021/08/24 03:27:52;;;;;;;8.55;3.60;;;15.60;80.30;;;;;;4823438;29;20061;-78
2021/08/24 03:30:22;;;;;;;5.93;3.38;;;15.60;80.20;;;;;;4822291;29;20062;-77
2021/08/24 03:32:52;;;;;;;2.97;2.65;;;15.50;80.10;;;;;;4836055;29;20408;-77
2021/08/24 03:35:23;;;;;;;2.85;2.50;;;15.50;80.10;;;;;;4825019;29;20073;-77
2021/08/24 03:37:54;;;;;;;3.13;2.45;;;15.60;80.00;;;;;;4841508;29;20488;-77
2021/08/24 03:40:22;;;;;;;2.30;2.10;;;15.50;80.00;;;;;;4841676;29;20073;-77
2021/08/24 03:42:51;;;;;;;1.90;1.80;;;15.50;79.90;;;;;;4841159;29;20374;-76
2021/08/24 03:45:18;;;;;;;1.65;1.50;;;15.50;79.90;;;;;;4840532;29;20523;-76
2021/08/24 03:47:46;;;;;;;3.10;1.73;;;15.60;79.80;;;;;;4841202;29;20065;-77
2021/08/24 03:50:14;;;;;;;2.17;1.50;;;15.60;79.80;;;;;;4839221;29;20065;-76
2021/08/24 03:52:51;;;;;;;2.28;1.70;;;15.60;79.70;;;;;;4841251;29;20476;-77
2021/08/24 03:55:22;;;;;;;1.83;1.60;;;15.60;79.60;;;;;;4841352;29;20520;-76
2021/08/24 03:57:49;;;;;;;2.15;1.40;;;15.60;79.60;;;;;;4840845;29;20056;-77
2021/08/24 04:00:18;;;;;;;1.70;1.60;;;15.60;79.50;;;;;;4822753;29;20062;-77
2021/08/24 04:02:46;;;;;;;1.63;1.52;;;15.60;79.40;;;;;;4821732;29;20093;-77
2021/08/24 04:05:14;;;;;;;1.80;1.70;;;15.60;79.40;;;;;;4821619;29;20053;-77
2021/08/24 04:07:42;;;;;;;2.95;1.90;;;15.60;79.30;;;;;;4823540;29;20058;-76
2021/08/24 04:10:10;;;;;;;1.77;1.67;;;15.60;79.20;;;;;;4822951;29;20428;-77
2021/08/24 04:12:38;;;;;;;2.28;1.58;;;15.60;79.30;;;;;;4822014;29;20046;-77
2021/08/24 04:15:09;;;;;;;2.40;2.20;;;15.60;79.40;;;;;;4823052;29;20515;-77
2021/08/24 04:17:40;;;;;;;2.90;2.10;;;15.60;79.50;;;;;;4821887;29;20062;-77
2021/08/24 04:20:15;;;;;;;2.60;2.28;;;15.60;79.60;;;;;;4804763;29;20548;-77
2021/08/24 04:22:46;;;;;;;3.38;2.40;;;15.50;79.70;;;;;;4818790;29;20067;-76
2021/08/24 04:25:16;;;;;;;3.00;2.67;;;15.60;79.90;;;;;;4788466;29;20053;-77
2021/08/24 04:27:45;;;;;;;3.47;2.83;;;15.50;80.00;;;;;;4804731;29;20074;-76
2021/08/24 04:30:13;;;;;;;2.90;2.60;;;15.50;80.10;;;;;;4804621;29;20063;-76
2021/08/24 04:32:46;;;;;;;3.90;2.90;;;15.50;80.20;;;;;;4817503;29;20061;-77
2021/08/24 04:35:17;;;;;;;4.45;3.10;;;15.50;80.40;;;;;;4822797;29;20051;-76
2021/08/24 04:37:47;;;;;;;3.63;3.30;;;15.50;80.40;;;;;;4821503;29;20050;-76
2021/08/24 04:40:15;;;;;;;3.83;3.53;;;15.40;80.40;;;;;;4822707;29;20062;-76
2021/08/24 04:42:43;;;;;;;3.72;3.42;;;15.40;80.60;;;;;;4819844;29;20409;-77
2021/08/24 04:45:12;;;;;;;3.67;3.38;;;15.40;80.70;;;;;;4822415;29;20157;-76
2021/08/24 04:47:40;;;;;;;3.58;3.28;;;15.40;80.80;;;;;;4822694;29;20050;-77
2021/08/24 04:50:08;;;;;;;4.82;3.10;;;15.40;80.90;;;;;;4822446;29;20049;-77
2021/08/24 04:52:36;;;;;;;3.08;2.78;;;15.40;81.00;;;;;;4822474;29;20065;-77
2021/08/24 04:55:05;;;;;;;4.20;3.08;;;15.40;81.10;;;;;;4820948;29;20081;-77
2021/08/24 04:57:32;;;;;;;5.70;2.80;;;15.40;81.20;;;;;;4823864;29;20054;-77
2021/08/24 05:00:00;;;;;;;2.60;2.40;;;15.40;81.30;;;;;;4825463;29;20046;-77
2021/08/24 05:02:31;;;;;;;4.70;2.85;;;15.30;81.30;;;;;;4824222;29;20065;-77
2021/08/24 05:05:02;;;;;;;4.50;2.90;;;15.30;81.50;;;;;;4824616;29;20050;-77
2021/08/24 05:07:30;;;;;;;3.78;3.47;;;15.30;81.60;;;;;;4825888;29;20069;-77
2021/08/24 05:09:57;;;;;;;4.63;3.95;;;15.30;81.70;;;;;;4825477;29;20073;-77
2021/08/24 05:12:25;;;;;;;6.40;5.07;;;15.30;81.90;;;;;;4825652;29;20062;-77
2021/08/24 05:14:53;;;;;;;5.43;4.57;;;15.30;82.00;;;;;;4824177;29;20401;-78
2021/08/24 05:17:21;;;;;;;5.20;4.70;;;15.30;82.10;;;;;;4824264;29;20050;-76
2021/08/24 05:19:49;;;;;;;6.50;5.68;;;15.30;82.20;;;;;;4825577;29;20066;-77
2021/08/24 05:22:17;;;;;;;6.57;4.93;;;15.30;82.20;;;;;;4824015;29;20504;-77
2021/08/24 05:24:45;;;;;;;5.53;4.97;;;15.30;82.20;;;;;;4825195;29;20053;-77
2021/08/24 05:27:12;;;;;;;5.90;4.70;;;15.30;82.30;;;;;;4825423;29;20061;-77
2021/08/24 05:29:40;;;;;;;6.20;5.05;;;15.30;82.30;;;;;;4809087;29;20054;-78
2021/08/24 05:32:08;;;;;;;6.22;4.90;;;15.30;82.30;;;;;;4824933;29;20054;-77
2021/08/24 05:34:36;;;;;;;7.68;4.95;;;15.30;82.30;;;;;;4824881;29;20061;-77
2021/08/24 05:37:06;;;;;;;6.82;4.55;;;15.30;82.20;;;;;;4824889;29;20073;-77
2021/08/24 05:39:35;;;;;;;5.68;4.75;;;15.30;82.20;;;;;;4824959;29;20050;-77
2021/08/24 05:42:03;;;;;;;6.03;4.47;;;15.30;82.20;;;;;;4823656;29;20053;-77
2021/08/24 05:44:35;;;;;;;4.95;4.22;;;15.30;82.10;;;;;;4823349;29;20065;-77
2021/08/24 05:47:17;;;;;;;5.43;4.35;;;15.30;82.10;;;;;;4818489;29;20054;-77
2021/08/24 05:49:46;;;;;;;4.57;4.05;;;15.40;82.00;;;;;;4824146;29;20054;-77
2021/08/24 05:52:14;;;;;;;4.57;4.00;;;15.40;81.90;;;;;;4824771;29;20516;-79
2021/08/24 05:54:42;;;;;;;5.28;3.97;;;15.50;81.80;;;;;;4824925;29;20065;-78
2021/08/24 05:57:10;;;;;;;4.57;4.07;;;15.50;81.70;;;;;;4828308;29;20034;-77
2021/08/24 05:59:41;;;;;;;4.38;3.97;;;15.60;81.60;;;;;;4824838;29;20058;-77
2021/08/24 06:02:08;;;;;;;4.93;4.35;;;15.60;81.50;;;;;;4824731;29;20054;-76
2021/08/24 06:04:40;;;;;;;5.97;4.32;;;15.60;81.30;;;;;;4823772;29;20130;-77
2021/08/24 06:07:07;;;;;;;6.32;3.97;;;15.60;81.30;;;;;;4824702;29;20054;-76
2021/08/24 06:09:35;;;;;;;4.50;4.10;;;15.70;81.30;;;;;;4823791;29;20073;-76
2021/08/24 06:12:03;;;;;;;4.60;3.90;;;15.70;81.20;;;;;;4824756;29;20129;-77
2021/08/24 06:14:31;;;;;;;5.65;4.45;;;15.70;81.00;;;;;;4853658;29;20054;-77
2021/08/24 06:17:00;;;;;;;4.72;4.20;;;15.70;81.00;;;;;;4824535;29;20089;-76
2021/08/24 06:19:29;;;;;;;4.55;3.95;;;15.70;80.90;;;;;;4824588;29;20061;-76
2021/08/24 06:21:59;;;;;;;4.40;3.92;;;15.70;80.80;;;;;;4824636;29;20054;-77
2021/08/24 06:24:28;;;;;;;6.55;3.50;;;15.80;80.70;;;;;;4823621;29;20493;-77
2021/08/24 06:26:57;;;;;;;3.97;3.60;;;15.80;80.60;;;;;;4824320;29;20049;-77
2021/08/24 06:29:28;;;;;;;4.20;3.80;;;15.80;80.60;;;;;;4824258;29;20433;-77
2021/08/24 06:31:59;;;;;;;3.83;3.53;;;15.90;80.40;;;;;;4831246;29;20053;-77
2021/08/24 06:34:30;;;;;;;4.32;3.45;;;15.90;80.30;;;;;;4839440;29;20505;-81
2021/08/24 06:37:00;;;;;;;4.18;3.15;;;16.00;80.30;;;;;;4842225;29;20050;-77
2021/08/24 06:39:28;;;;;;;3.13;2.83;;;16.00;80.20;;;;;;4842600;29;20076;-76
2021/08/24 06:41:56;;;;;;;3.53;3.17;;;15.90;80.20;;;;;;4842932;29;20054;-77
2021/08/24 06:44:30;;;;;;;3.40;3.10;;;15.90;80.20;;;;;;4842318;29;20050;-76
2021/08/24 06:46:59;;;;;;;4.45;3.15;;;15.90;80.20;;;;;;4842349;29;20412;-77
2021/08/24 06:49:26;;;;;;;3.53;3.20;;;15.90;80.20;;;;;;4842505;29;20066;-76
2021/08/24 06:51:57;;;;;;;3.00;2.80;;;15.90;80.20;;;;;;4841940;29;20053;-77
2021/08/24 06:54:29;;;;;;;4.13;2.70;;;15.90;80.20;;;;;;4842249;29;20058;-77
2021/08/24 06:56:57;;;;;;;3.67;2.65;;;15.90;80.20;;;;;;4842463;29;20131;-76
2021/08/24 06:59:25;;;;;;;3.85;3.00;;;15.90;80.10;;;;;;4841990;29;20057;-77
2021/08/24 07:01:52;;;;;;;3.75;2.85;;;15.90;80.10;;;;;;4842022;29;20493;-77
2021/08/24 07:04:20;;;;;;;3.38;3.10;;;15.90;80.10;;;;;;4841823;29;20520;-77
2021/08/24 07:06:50;;;;;;;3.45;2.40;;;16.00;80.00;;;;;;4842003;29;20057;-76
2021/08/24 07:09:18;;;;;;;3.80;3.17;;;15.90;80.00;;;;;;4840721;29;20058;-76
2021/08/24 07:11:46;;;;;;;5.32;3.22;;;16.00;79.90;;;;;;4842190;29;20523;-76
2021/08/24 07:14:14;;;;;;;4.30;3.30;;;16.00;79.80;;;;;;4826015;29;20792;-76
2021/08/24 07:16:44;;;;;;;4.47;2.85;;;16.00;79.80;;;;;;4840904;29;20064;-77
2021/08/24 07:19:11;;;;;;;3.85;2.80;;;16.00;79.70;;;;;;4829602;29;20062;-77
2021/08/24 07:21:39;;;;;;;2.83;2.63;;;16.10;79.60;;;;;;4823673;29;20445;-77
2021/08/24 07:24:07;;;;;;;2.40;2.20;;;16.10;79.40;;;;;;4823500;29;20055;-76
2021/08/24 07:26:34;;;;;;;3.25;2.30;;;16.20;79.10;;;;;;4822575;29;20505;-76
2021/08/24 07:29:02;;;;;;;3.78;2.03;;;16.20;78.90;;;;;;4823328;29;20062;-77
2021/08/24 07:31:33;;;;;;;2.38;2.17;;;16.20;78.60;;;;;;4821928;29;20795;-77
2021/08/24 07:34:01;;;;;;;2.85;2.65;;;16.30;78.60;;;;;;4831074;29;20061;-77
2021/08/24 07:36:29;;;;;;;3.38;2.72;;;16.30;78.50;;;;;;4840307;29;20072;-77
2021/08/24 07:38:57;;;;;;;3.05;2.70;;;16.40;78.40;;;;;;4838791;29;20051;-77
2021/08/24 07:41:25;;;;;;;4.30;2.55;;;16.40;78.10;;;;;;4853121;29;20524;-78
2021/08/24 07:43:53;;;;;;;6.32;3.10;;;16.40;77.90;;;;;;4853101;29;20054;-78
2021/08/24 07:46:22;;;;;;;4.07;3.63;;;16.30;77.90;;;;;;4832836;29;20501;-78
2021/08/24 07:48:50;;;;;;;5.32;3.83;;;16.30;77.90;;;;;;4830563;29;20050;-77
2021/08/24 07:51:21;;;;;;;3.42;3.08;;;16.20;78.00;;;;;;4831588;29;20038;-77
2021/08/24 07:53:49;;;;;;;4.95;3.60;;;16.20;78.20;;;;;;4831395;29;20072;-77
2021/08/24 07:56:18;;;;;;;5.03;4.53;;;16.10;78.40;;;;;;4832922;29;20532;-77
2021/08/24 07:58:45;;;;;;;4.00;3.70;;;16.20;78.30;;;;;;4828195;29;20064;-77
2021/08/24 08:01:14;;;;;;;4.43;3.95;;;16.20;78.10;;;;;;4827987;29;20061;-77
2021/08/24 08:03:57;;;;;;;4.35;3.95;;;16.20;78.00;;;;;;5070566;28;20395;-76
2021/08/24 08:06:25;;;;;;;4.93;4.53;;;16.30;77.80;;;;;;5037455;28;20117;-76
2021/08/24 08:08:54;;;;;;;5.72;4.53;;;16.30;77.50;;;;;;5054899;28;20057;-77
2021/08/24 08:11:22;;;;;;;5.70;4.03;;;16.40;77.30;;;;;;5058629;28;20067;-77
2021/08/24 08:13:50;;;;;;;5.63;4.43;;;16.50;77.20;;;;;;5057600;28;20049;-77
2021/08/24 08:16:18;;;;;;;4.60;4.18;;;16.50;77.00;;;;;;5062419;28;20053;-77
2021/08/24 08:18:50;;;;;;;5.20;4.40;;;16.50;76.80;;;;;;5060206;28;20049;-77
2021/08/24 08:21:18;;;;;;;4.63;4.13;;;16.60;76.70;;;;;;5060236;28;20056;-77
2021/08/24 08:23:47;;;;;;;4.45;4.05;;;16.50;76.70;;;;;;5054514;28;20052;-77
2021/08/24 08:26:16;;;;;;;5.63;4.45;;;16.50;76.70;;;;;;5064673;28;20060;-76
2021/08/24 08:28:43;;;;;;;4.55;4.10;;;16.50;76.70;;;;;;5054264;28;20049;-81
2021/08/24 08:31:14;;;;;;;5.63;4.55;;;16.50;76.70;;;;;;5056419;28;20501;-76
2021/08/24 08:33:42;;;;;;;7.00;4.35;;;16.60;76.70;;;;;;5054609;28;20040;-77
2021/08/24 08:36:13;;;;;;;5.30;4.80;;;16.70;76.60;;;;;;5053431;28;20068;-77
2021/08/24 08:38:41;;;;;;;5.13;4.72;;;16.80;76.30;;;;;;5061998;28;20048;-76
2021/08/24 08:41:50;;;;;;;5.85;4.80;;;16.90;75.70;;;;;;5065700;28;20053;-76
2021/08/24 08:44:50;;;;;;;5.10;4.60;;;17.10;75.20;;;;;;5025019;28;20046;-76
2021/08/24 08:47:42;;;;;;;4.95;4.55;;;17.30;74.70;;;;;;5025279;28;20056;-76
2021/08/24 08:50:33;;;;;;;5.20;4.70;;;17.30;73.90;;;;;;5025733;28;20057;-77
2021/08/24 08:53:18;;;;;;;5.45;4.95;;;17.40;73.00;;;;;;5009370;28;20455;-76
2021/08/24 08:55:50;;;;;;;5.88;5.20;;;17.40;73.10;;;;;;5022109;28;20054;-75
2021/08/24 08:58:32;;;;;;;5.83;5.23;;;17.40;73.30;;;;;;5029783;28;20053;-76
2021/08/24 09:01:40;;;;;;;7.70;5.72;;;17.50;73.30;;;;;;5003271;28;20061;-77
2021/08/24 09:04:25;;;;;;;6.80;6.05;;;17.50;73.00;;;;;;5026370;28;20181;-77
2021/08/24 09:06:59;;;;;;;7.22;6.45;;;17.50;73.10;;;;;;5016187;28;20049;-76
2021/08/24 09:09:29;;;;;;;7.63;6.88;;;17.50;73.00;;;;;;5024969;28;20062;-77
2021/08/24 09:11:59;;;;;;;8.20;7.32;;;17.50;72.90;;;;;;5008417;28;20395;-79
2021/08/24 09:14:49;;;;;;;8.75;7.00;;;17.50;73.00;;;;;;5016633;28;20065;-79
2021/08/24 09:17:28;;;;;;;8.80;7.90;;;17.40;72.90;;;;;;5012784;28;20058;-76
2021/08/24 09:20:26;;;;;;;9.35;8.45;;;17.40;72.70;;;;;;5041971;28;20064;-76
2021/08/24 09:22:54;;;;;;;8.35;7.55;;;17.30;72.70;;;;;;5024130;28;20046;-76
2021/08/24 09:25:37;;;;;;;9.60;8.70;;;17.40;72.90;;;;;;5033205;28;20042;-76
2021/08/24 09:28:13;;;;;;;9.05;7.88;;;17.40;72.60;;;;;;5027584;28;20046;-76
2021/08/24 09:30:46;;;;;;;9.57;8.00;;;17.50;72.30;;;;;;5037898;28;20041;-76
2021/08/24 09:33:20;;;;;;;9.20;8.30;;;17.50;72.20;;;;;;5006127;28;20048;-76
2021/08/24 09:35:50;;;;;;;7.38;6.68;;;17.50;72.20;;;;;;5020750;28;20046;-78
2021/08/24 09:38:49;;;;;;;7.53;6.80;;;17.60;72.00;;;;;;5027359;28;20054;-77
2021/08/24 09:41:25;;;;;;;6.75;6.15;;;17.50;71.80;;;;;;5048490;28;20494;-76
2021/08/24 09:44:17;;;;;;;7.75;7.00;;;17.50;71.90;;;;;;5039835;28;20048;-77
2021/08/24 09:46:49;;;;;;;7.80;6.40;;;17.40;72.00;;;;;;5036699;28;20045;-77
2021/08/24 09:49:34;;;;;;;6.30;5.80;;;17.50;72.10;;;;;;5050685;28;20041;-76
2021/08/24 09:52:05;;;;;;;5.80;5.20;;;17.40;72.20;;;;;;5023959;28;20579;-76
2021/08/24 09:55:11;;;;;;;5.90;5.40;;;17.40;72.30;;;;;;5041474;28;20057;-77
2021/08/24 09:57:50;;;;;;;8.35;4.70;;;17.40;72.40;;;;;;5023879;28;20391;-77
2021/08/24 10:00:21;;;;;;;4.43;4.10;;;17.40;72.50;;;;;;5042680;28;20057;-77
2021/08/24 10:02:59;;;;;;;5.30;4.63;;;17.50;72.50;;;;;;5047683;28;20053;-76
2021/08/24 10:05:38;;;;;;;5.10;3.97;;;17.50;72.60;;;;;;5036880;28;20048;-75
2021/08/24 10:08:30;;;;;;;3.70;3.40;;;17.50;72.50;;;;;;5045249;28;20060;-76
2021/08/24 10:11:06;;;;;;;4.50;3.70;;;17.60;72.10;;;;;;5028135;28;20054;-76
2021/08/24 10:13:43;;;;;;;3.40;3.17;;;17.80;71.80;;;;;;5004794;28;20045;-77
2021/08/24 10:16:21;;;;;;;4.30;3.90;;;18.00;71.10;;;;;;5026654;28;20093;-76
2021/08/24 10:19:04;;;;;;;3.75;3.45;;;18.20;70.40;;;;;;5037603;28;20072;-76
2021/08/24 10:21:51;;;;;;;2.70;2.50;;;18.30;70.00;;;;;;5020891;28;20046;-76
2021/08/24 10:24:29;;;;;;;3.75;2.00;;;18.50;69.30;;;;;;5041324;28;20049;-76
2021/08/24 10:27:04;;;;;;;2.97;1.98;;;18.70;68.90;;;;;;5046680;28;20040;-76
2021/08/24 10:29:37;;;;;;;3.42;2.40;;;18.70;68.70;;;;;;5035572;28;20052;-76
2021/08/24 10:32:10;;;;;;;2.53;1.25;;;18.90;68.30;;;;;;5044199;28;20057;-76
2021/08/24 10:34:45;;;;;;;1.35;1.02;;;19.30;67.40;;;;;;5034609;28;20045;-75
2021/08/24 10:37:25;;;;;;;1.20;1.10;;;19.50;66.20;;;;;;5046397;28;20060;-76
2021/08/24 10:40:20;;;;;;;1.75;1.00;;;19.70;65.30;;;;;;5039377;28;20037;-76
2021/08/24 10:43:15;;;;;;;1.20;1.00;;;19.80;64.40;;;;;;5027402;28;20045;-77
2021/08/24 10:46:03;;;;;;;1.23;1.13;;;19.90;64.20;;;;;;5024951;28;20056;-76
2021/08/24 10:48:33;;;;;;;2.35;2.15;;;20.00;64.50;;;;;;5040962;28;20049;-75
2021/08/24 10:51:04;;;;;;;3.80;3.50;;;20.00;64.20;;;;;;5048807;28;20124;-76
2021/08/24 10:53:55;;;;;;;4.43;4.03;;;19.90;64.00;;;;;;5020476;28;20410;-76
2021/08/24 10:56:38;;;;;;;5.25;3.90;;;19.90;64.10;;;;;;5037710;28;20409;-76
2021/08/24 10:59:39;;;;;;;8.13;3.50;;;19.80;64.60;;;;;;5049125;28;20362;-76
2021/08/24 11:02:31;;;;;;;3.35;3.15;;;20.00;64.20;;;;;;5040992;28;20204;-77
2021/08/24 11:05:09;;;;;;;3.80;3.50;;;19.90;64.20;;;;;;5036844;28;20049;-76
2021/08/24 11:07:57;;;;;;;6.63;3.47;;;19.90;64.30;;;;;;5021673;28;20533;-76
2021/08/24 11:10:30;;;;;;;4.43;4.03;;;19.80;64.20;;;;;;5046612;28;20056;-76
2021/08/24 11:13:06;;;;;;;3.70;3.40;;;19.70;64.40;;;;;;5036421;28;20522;-76
2021/08/24 11:15:42;;;;;;;3.88;3.50;;;19.60;64.60;;;;;;5020930;28;20052;-77
2021/08/24 11:18:56;;;;;;;3.53;3.08;;;19.60;64.90;;;;;;5042720;28;20046;-77
2021/08/24 11:21:37;;;;;;;6.90;4.00;;;19.50;65.10;;;;;;5031774;28;20042;-77
2021/08/24 11:24:29;;;;;;;3.70;3.40;;;19.50;65.30;;;;;;5031403;28;20052;-77
2021/08/24 11:27:32;;;;;;;5.55;3.17;;;19.40;65.40;;;;;;5015253;28;20423;-77
2021/08/24 11:30:18;;;;;;;4.53;2.80;;;19.30;65.70;;;;;;5031108;28;20057;-77
2021/08/24 11:32:53;;;;;;;3.83;2.80;;;19.30;65.90;;;;;;5031168;28;20058;-78
2021/08/24 11:35:34;;;;;;;3.15;2.65;;;19.30;66.10;;;;;;5032442;28;20641;-77
2021/08/24 11:38:10;;;;;;;2.90;2.70;;;19.40;65.90;;;;;;5032254;28;20041;-77
2021/08/24 11:40:59;;;;;;;3.55;2.63;;;19.60;65.90;;;;;;5031239;28;20487;-79
2021/08/24 11:43:49;;;;;;;3.13;2.53;;;19.60;65.60;;;;;;5014589;28;20387;-80
2021/08/24 11:46:43;;;;;;;2.97;2.72;;;19.60;65.50;;;;;;5032108;28;20049;-79
2021/08/24 11:49:40;;;;;;;3.10;2.45;;;19.50;65.80;;;;;;5031333;28;20045;-79
2021/08/24 11:52:14;;;;;;;3.03;2.50;;;19.40;65.80;;;;;;5031652;28;20053;-79
2021/08/24 11:54:57;;;;;;;3.65;3.03;;;19.30;65.90;;;;;;5033003;28;20037;-79
2021/08/24 11:57:46;;;;;;;6.25;2.58;;;19.30;66.20;;;;;;5039014;28;20052;-79
2021/08/24 12:00:15;;;;;;;3.65;2.53;;;19.20;66.40;;;;;;5029375;28;20049;-77
2021/08/24 12:02:48;;;;;;;6.75;3.47;;;19.00;66.60;;;;;;5050456;28;20061;-78
2021/08/24 12:05:20;;;;;;;4.45;3.05;;;19.00;66.80;;;;;;5051823;28;20064;-78
2021/08/24 12:08:03;;;;;;;3.10;2.90;;;18.90;66.80;;;;;;5051354;28;20041;-78
2021/08/24 12:10:52;;;;;;;4.90;3.70;;;18.80;67.10;;;;;;5051512;28;20060;-78
2021/08/24 12:13:47;;;;;;;4.88;3.58;;;18.90;67.10;;;;;;5052947;28;20049;-80
2021/08/24 12:16:24;;;;;;;3.22;2.95;;;18.90;67.20;;;;;;5051379;28;20076;-78
2021/08/24 12:18:57;;;;;;;4.65;3.47;;;19.00;66.90;;;;;;5050826;28;20422;-78
2021/08/24 12:22:17;;;;;;;3.40;3.10;;;19.00;66.80;;;;;;5052665;28;20061;-78
2021/08/24 12:24:57;;;;;;;3.20;2.90;;;19.00;66.40;;;;;;4954630;28;20424;-78
2021/08/24 12:27:27;;;;;;;2.90;2.60;;;19.00;65.60;;;;;;4970404;28;20051;-78
2021/08/24 12:30:21;;;;;;;2.92;2.65;;;19.10;65.50;;;;;;4954877;28;20067;-80
2021/08/24 12:32:49;;;;;;;2.70;2.50;;;19.20;65.40;;;;;;4954640;28;20043;-79
2021/08/24 12:35:34;;;;;;;2.60;2.40;;;19.30;64.90;;;;;;4923104;28;20058;-78
2021/08/24 12:38:03;;;;;;;2.00;1.90;;;19.40;64.60;;;;;;4954633;28;20520;-78
2021/08/24 12:40:47;;;;;;;2.72;2.10;;;19.60;64.50;;;;;;4954538;28;20047;-77
2021/08/24 12:43:17;;;;;;;4.28;2.13;;;19.80;64.20;;;;;;4970747;28;20051;-80
2021/08/24 12:45:46;;;;;;;2.97;1.73;;;20.00;63.50;;;;;;4938953;28;20440;-78
2021/08/24 12:48:22;;;;;;;1.95;1.80;;;20.10;63.00;;;;;;4970804;28;20077;-79
2021/08/24 12:51:04;;;;;;;5.20;2.40;;;20.30;62.70;;;;;;4974380;28;20532;-79
2021/08/24 12:54:01;;;;;;;1.92;1.63;;;20.30;62.70;;;;;;4958414;28;20127;-79
2021/08/24 12:56:39;;;;;;;2.42;1.10;;;20.30;62.50;;;;;;4941816;28;20093;-79
2021/08/24 12:59:26;;;;;;;1.17;1.00;;;20.30;61.70;;;;;;4941927;29;20500;-79
2021/08/24 13:02:10;;;;;;;2.13;1.10;;;20.30;61.90;;;;;;5015252;28;20058;-78
2021/08/24 13:04:47;;;;;;;3.88;1.27;;;20.30;61.40;;;;;;5035335;28;20052;-78
2021/08/24 13:07:32;;;;;;;1.35;1.15;;;20.30;61.40;;;;;;5035239;28;20060;-78
2021/08/24 13:10:25;;;;;;;2.08;1.02;;;20.20;61.60;;;;;;5017504;28;20045;-78
2021/08/24 13:12:55;;;;;;;4.07;1.20;;;20.30;61.70;;;;;;5035188;28;20045;-78
2021/08/24 13:15:27;;;;;;;1.77;1.15;;;20.30;61.90;;;;;;5033895;28;20048;-79
2021/08/24 13:18:01;;;;;;;3.58;1.23;;;20.30;61.70;;;;;;5035240;28;20045;-79
2021/08/24 13:20:33;;;;;;;1.38;1.27;;;20.20;61.70;;;;;;5033927;28;20041;-79
2021/08/24 13:23:09;;;;;;;1.10;1.00;;;20.20;61.80;;;;;;5033635;28;20117;-79
2021/08/24 13:25:44;;;;;;;1.48;1.13;;;20.20;62.00;;;;;;5033276;28;20050;-79